createdAt,value
2023-03-20T00:01:18.710Z,100574.56
2023-03-20T00:03:48.511Z,100571.47
2023-03-20T00:06:18.302Z,100569.55
2023-03-20T00:08:47.657Z,100567.80
2023-03-20T00:11:23.354Z,100567.06
2023-03-20T00:13:52.445Z,100570.59
2023-03-20T00:16:21.622Z,100566.52
2023-03-20T00:18:50.841Z,100569.14
2023-03-20T00:21:22.936Z,100566.41
2023-03-20T00:23:53.927Z,100567.82
2023-03-20T00:26:27.092Z,100570.08
2023-03-20T00:28:59.290Z,100565.83
2023-03-20T00:31:28.794Z,100566.85
2023-03-20T00:33:57.967Z,100559.98
2023-03-20T00:36:26.514Z,100556.55
2023-03-20T00:38:58.239Z,100557.71
2023-03-20T00:41:26.632Z,100556.85
2023-03-20T00:43:59.594Z,100555.67
2023-03-20T00:46:28.227Z,100558.11
2023-03-20T00:48:56.512Z,100560.38
2023-03-20T00:51:24.752Z,100560.25
2023-03-20T00:53:53.309Z,100560.48
2023-03-20T00:56:31.783Z,100559.05
2023-03-20T00:59:01.059Z,100559.79
2023-03-20T01:01:29.652Z,100559.35
2023-03-20T01:03:58.458Z,100557.55
2023-03-20T01:06:26.663Z,100556.82
2023-03-20T01:08:57.913Z,100556.60
2023-03-20T01:11:27.029Z,100557.37
2023-03-20T01:13:58.901Z,100561.86
2023-03-20T01:16:27.362Z,100562.81
2023-03-20T01:18:55.977Z,100560.23
2023-03-20T01:21:26.046Z,100559.66
2023-03-20T01:23:54.424Z,100554.81
2023-03-20T01:26:29.526Z,100555.94
2023-03-20T01:28:57.780Z,100556.09
2023-03-20T01:31:27.347Z,100551.94
2023-03-20T01:34:03.326Z,100554.27
2023-03-20T01:36:32.218Z,100558.48
2023-03-20T01:39:00.701Z,100556.56
2023-03-20T01:41:29.076Z,100557.35
2023-03-20T01:43:57.736Z,100552.65
2023-03-20T01:46:28.787Z,100558.58
2023-03-20T01:49:05.966Z,100557.33
2023-03-20T01:51:37.954Z,100561.41
2023-03-20T01:54:12.836Z,100561.52
2023-03-20T01:57:21.472Z,100556.62
2023-03-20T01:59:51.768Z,100551.88
2023-03-20T02:02:21.652Z,100552.83
2023-03-20T02:04:51.287Z,100550.35
2023-03-20T02:07:20.253Z,100551.45
2023-03-20T02:10:09.838Z,100552.57
2023-03-20T02:13:08.074Z,100553.36
2023-03-20T02:15:59.123Z,100555.36
2023-03-20T02:18:43.057Z,100556.16
2023-03-20T02:21:30.566Z,100553.73
2023-03-20T02:24:18.746Z,100556.77
2023-03-20T02:26:50.209Z,100561.35
2023-03-20T02:29:30.612Z,100559.27
2023-03-20T02:32:17.617Z,100559.68
2023-03-20T02:34:46.047Z,100558.72
2023-03-20T02:37:33.303Z,100553.68
2023-03-20T02:40:01.800Z,100553.80
2023-03-20T02:42:48.600Z,100556.50
2023-03-20T02:45:16.827Z,100555.88
2023-03-20T02:47:49.697Z,100556.19
2023-03-20T02:50:29.327Z,100559.39
2023-03-20T02:52:57.968Z,100559.90
2023-03-20T02:55:30.748Z,100564.88
2023-03-20T02:58:02.854Z,100562.18
2023-03-20T03:00:35.693Z,100555.83
2023-03-20T03:03:21.034Z,100556.84
2023-03-20T03:06:09.322Z,100555.12
2023-03-20T03:08:38.499Z,100556.14
2023-03-20T03:11:08.820Z,100553.70
2023-03-20T03:13:43.308Z,100555.34
2023-03-20T03:16:13.871Z,100554.80
2023-03-20T03:18:42.258Z,100552.93
2023-03-20T03:21:11.148Z,100552.59
2023-03-20T03:23:45.826Z,100550.57
2023-03-20T03:26:37.472Z,100546.33
2023-03-20T03:29:15.895Z,100546.66
2023-03-20T03:31:44.770Z,100543.34
2023-03-20T03:34:13.952Z,100541.29
2023-03-20T03:36:49.815Z,100542.59
2023-03-20T03:39:24.365Z,100542.16
2023-03-20T03:42:25.143Z,100540.29
2023-03-20T03:44:58.062Z,100538.09
2023-03-20T03:47:31.590Z,100535.14
2023-03-20T03:50:06.923Z,100534.91
2023-03-20T03:52:35.831Z,100534.80
2023-03-20T03:55:08.357Z,100534.17
2023-03-20T03:58:12.082Z,100534.98
2023-03-20T04:00:41.183Z,100536.23
2023-03-20T04:03:09.572Z,100534.04
2023-03-20T04:05:43.076Z,100533.42
2023-03-20T04:08:11.390Z,100536.73
2023-03-20T04:10:42.420Z,100535.76
2023-03-20T04:13:12.012Z,100533.48
2023-03-20T04:15:42.648Z,100539.73
2023-03-20T04:18:14.866Z,100540.05
2023-03-20T04:20:44.766Z,100539.75
2023-03-20T04:23:13.288Z,100544.66
2023-03-20T04:25:41.585Z,100544.36
2023-03-20T04:28:11.802Z,100555.33
2023-03-20T04:31:11.430Z,100558.62
2023-03-20T04:33:55.843Z,100558.59
2023-03-20T04:36:44.428Z,100561.33
2023-03-20T04:39:14.664Z,100559.96
2023-03-20T04:41:43.206Z,100567.83
2023-03-20T04:44:12.477Z,100571.42
2023-03-20T04:46:44.747Z,100575.66
2023-03-20T04:49:22.498Z,100574.94
2023-03-20T04:51:51.265Z,100571.17
2023-03-20T04:54:28.796Z,100570.92
2023-03-20T04:56:57.392Z,100573.57
2023-03-20T04:59:26.542Z,100573.30
2023-03-20T05:01:58.802Z,100577.79
2023-03-20T05:04:28.091Z,100582.79
2023-03-20T05:06:56.914Z,100585.65
2023-03-20T05:09:31.737Z,100585.30
2023-03-20T05:12:03.375Z,100581.45
2023-03-20T05:14:58.006Z,100582.91
2023-03-20T05:17:58.334Z,100587.04
2023-03-20T05:20:56.266Z,100593.27
2023-03-20T05:23:53.926Z,100594.09
2023-03-20T05:26:31.116Z,100590.90
2023-03-20T05:29:18.846Z,100590.86
2023-03-20T05:32:07.774Z,100592.71
2023-03-20T05:34:47.494Z,100592.13
2023-03-20T05:37:26.032Z,100593.56
2023-03-20T05:40:26.767Z,100588.64
2023-03-20T05:43:06.284Z,100592.89
2023-03-20T05:45:43.114Z,100598.16
2023-03-20T05:48:29.807Z,100595.48
2023-03-20T05:51:18.074Z,100597.27
2023-03-20T05:54:08.499Z,100596.06
2023-03-20T05:56:42.687Z,100597.51
2023-03-20T05:59:34.118Z,100601.81
2023-03-20T06:02:22.664Z,100607.27
2023-03-20T06:04:56.606Z,100610.04
2023-03-20T06:07:30.579Z,100607.96
2023-03-20T06:10:10.435Z,100603.14
2023-03-20T06:12:39.725Z,100609.52
2023-03-20T06:15:08.386Z,100607.70
2023-03-20T06:17:43.087Z,100605.14
2023-03-20T06:20:14.806Z,100610.41
2023-03-20T06:22:43.739Z,100606.09
2023-03-20T06:25:15.324Z,100608.39
2023-03-20T06:27:43.994Z,100604.42
2023-03-20T06:30:15.192Z,100610.84
2023-03-20T06:32:44.061Z,100608.37
2023-03-20T06:35:13.651Z,100605.20
2023-03-20T06:37:45.708Z,100606.77
2023-03-20T06:40:17.783Z,100602.41
2023-03-20T06:42:49.849Z,100602.99
2023-03-20T06:45:18.339Z,100594.70
2023-03-20T06:48:07.723Z,100598.05
2023-03-20T06:50:36.599Z,100598.44
2023-03-20T06:53:05.807Z,100590.84
2023-03-20T06:55:48.846Z,100594.23
2023-03-20T06:58:17.293Z,100592.99
2023-03-20T07:00:46.846Z,100592.91
2023-03-20T07:03:16.869Z,100594.65
2023-03-20T07:05:47.295Z,100596.00
2023-03-20T07:08:15.642Z,100594.44
2023-03-20T07:10:43.862Z,100591.56
2023-03-20T07:13:14.512Z,100591.57
2023-03-20T07:15:57.510Z,100588.19
2023-03-20T07:18:32.987Z,100584.28
2023-03-20T07:21:03.438Z,100587.83
2023-03-20T07:23:32.800Z,100592.89
2023-03-20T07:26:01.344Z,100598.35
2023-03-20T07:28:30.958Z,100598.62
2023-03-20T07:31:14.974Z,100596.45
2023-03-20T07:33:43.614Z,100595.75
2023-03-20T07:36:11.779Z,100590.00
2023-03-20T07:38:41.436Z,100590.23
2023-03-20T07:41:11.476Z,100592.05
2023-03-20T07:43:44.708Z,100585.70
2023-03-20T07:46:26.565Z,100584.63
2023-03-20T07:48:56.780Z,100588.66
2023-03-20T07:51:25.444Z,100588.58
2023-03-20T07:53:54.246Z,100592.11
2023-03-20T07:56:22.628Z,100589.22
2023-03-20T07:58:52.133Z,100588.41
2023-03-20T08:01:20.606Z,100591.02
2023-03-20T08:03:48.955Z,100591.04
2023-03-20T08:06:29.384Z,100594.17
2023-03-20T08:08:57.744Z,100590.71
2023-03-20T08:11:28.367Z,100591.99
2023-03-20T08:13:56.585Z,100596.45
2023-03-20T08:16:25.455Z,100596.38
2023-03-20T08:18:56.355Z,100595.66
2023-03-20T08:21:24.541Z,100591.80
2023-03-20T08:23:52.641Z,100586.60
2023-03-20T08:26:21.928Z,100584.63
2023-03-20T08:28:51.456Z,100582.34
2023-03-20T08:31:20.798Z,100582.49
2023-03-20T08:33:49.163Z,100582.47
2023-03-20T08:36:20.575Z,100582.29
2023-03-20T08:38:54.562Z,100582.37
2023-03-20T08:41:22.984Z,100576.09
2023-03-20T08:43:51.112Z,100575.01
2023-03-20T08:46:19.598Z,100576.36
2023-03-20T08:48:47.924Z,100574.42
2023-03-20T08:51:16.429Z,100570.98
2023-03-20T08:53:44.641Z,100565.10
2023-03-20T08:56:12.987Z,100568.63
2023-03-20T08:58:41.858Z,100564.54
2023-03-20T09:01:10.163Z,100569.55
2023-03-20T09:03:38.454Z,100567.15
2023-03-20T09:06:07.196Z,100563.72
2023-03-20T09:08:35.738Z,100559.90
2023-03-20T09:11:04.149Z,100558.55
2023-03-20T09:13:32.819Z,100559.36
2023-03-20T09:16:01.090Z,100560.80
2023-03-20T09:18:29.451Z,100561.63
2023-03-20T09:20:57.871Z,100562.06
2023-03-20T09:23:26.032Z,100559.23
2023-03-20T09:25:55.069Z,100553.14
2023-03-20T09:28:23.738Z,100552.56
2023-03-20T09:30:57.233Z,100552.77
2023-03-20T09:33:25.657Z,100555.09
2023-03-20T09:35:53.880Z,100553.00
2023-03-20T09:38:22.227Z,100554.75
2023-03-20T09:40:50.977Z,100544.56
2023-03-20T09:43:37.919Z,100539.14
2023-03-20T09:46:06.949Z,100544.21
2023-03-20T09:48:38.397Z,100537.73
2023-03-20T09:51:16.333Z,100530.86
2023-03-20T09:54:05.453Z,100528.30
2023-03-20T09:56:33.839Z,100528.40
2023-03-20T09:59:02.777Z,100531.73
2023-03-20T10:01:34.122Z,100530.46
2023-03-20T10:04:08.924Z,100528.55
2023-03-20T10:06:37.231Z,100533.37
2023-03-20T10:09:26.391Z,100537.39
2023-03-20T10:12:08.529Z,100536.73
2023-03-20T10:14:39.517Z,100533.40
2023-03-20T10:17:22.041Z,100529.98
2023-03-20T10:20:04.602Z,100533.38
2023-03-20T10:22:33.652Z,100525.84
2023-03-20T10:25:05.065Z,100524.77
2023-03-20T10:27:34.726Z,100528.06
2023-03-20T10:30:12.232Z,100526.13
2023-03-20T10:33:00.235Z,100520.75
2023-03-20T10:35:47.151Z,100519.52
2023-03-20T10:38:27.236Z,100521.05
2023-03-20T10:40:58.095Z,100514.91
2023-03-20T10:43:38.845Z,100512.95
2023-03-20T10:46:10.697Z,100510.28
2023-03-20T10:48:40.941Z,100510.00
2023-03-20T10:51:14.405Z,100509.77
2023-03-20T10:54:02.497Z,100507.48
2023-03-20T10:56:32.989Z,100505.13
2023-03-20T10:59:04.766Z,100504.09
2023-03-20T11:01:37.612Z,100504.31
2023-03-20T11:04:07.545Z,100502.14
2023-03-20T11:06:39.799Z,100499.81
2023-03-20T11:09:13.031Z,100502.98
2023-03-20T11:11:44.603Z,100496.27
2023-03-20T11:14:23.072Z,100493.41
2023-03-20T11:16:55.197Z,100490.72
2023-03-20T11:19:24.443Z,100493.84
2023-03-20T11:21:57.460Z,100489.84
2023-03-20T11:24:41.961Z,100489.60
2023-03-20T11:27:14.372Z,100483.40
2023-03-20T11:29:45.723Z,100483.50
2023-03-20T11:32:17.196Z,100484.17
2023-03-20T11:34:46.176Z,100481.02
2023-03-20T11:37:23.856Z,100482.59
2023-03-20T11:39:59.036Z,100479.20
2023-03-20T11:42:28.419Z,100474.62
2023-03-20T11:45:00.614Z,100470.80
2023-03-20T11:47:34.538Z,100468.87
2023-03-20T11:50:05.372Z,100460.54
2023-03-20T11:52:35.456Z,100459.73
2023-03-20T11:55:04.877Z,100457.80
2023-03-20T11:57:33.348Z,100461.42
2023-03-20T12:00:37.646Z,100465.21
2023-03-20T12:03:42.453Z,100462.38
2023-03-20T12:06:19.233Z,100460.86
2023-03-20T12:08:50.671Z,100459.02
2023-03-20T12:11:22.218Z,100455.34
2023-03-20T12:13:51.679Z,100452.78
2023-03-20T12:16:21.301Z,100455.64
2023-03-20T12:18:51.283Z,100449.48
2023-03-20T12:21:23.152Z,100449.14
2023-03-20T12:23:58.667Z,100449.25
2023-03-20T12:26:32.684Z,100445.90
2023-03-20T12:29:01.621Z,100433.61
2023-03-20T12:31:31.318Z,100433.02
2023-03-20T12:34:07.016Z,100425.67
2023-03-20T12:36:44.975Z,100426.33
2023-03-20T12:39:16.975Z,100424.88
2023-03-20T12:41:49.855Z,100426.85
2023-03-20T12:44:20.145Z,100426.52
2023-03-20T12:46:48.272Z,100426.55
2023-03-20T12:49:16.481Z,100423.30
2023-03-20T12:52:03.312Z,100423.69
2023-03-20T12:54:34.612Z,100417.50
2023-03-20T12:57:05.867Z,100417.91
2023-03-20T12:59:37.197Z,100417.50
2023-03-20T13:02:20.862Z,100417.27
2023-03-20T13:04:51.911Z,100415.61
2023-03-20T13:07:22.037Z,100411.66
2023-03-20T13:09:53.466Z,100413.56
2023-03-20T13:12:27.696Z,100409.06
2023-03-20T13:15:14.956Z,100411.83
2023-03-20T13:17:48.457Z,100403.41
2023-03-20T13:20:27.432Z,100403.08
2023-03-20T13:22:58.680Z,100398.80
2023-03-20T13:25:30.012Z,100396.39
2023-03-20T13:28:19.122Z,100390.39
2023-03-20T13:30:51.595Z,100392.64
2023-03-20T13:33:32.199Z,100395.05
2023-03-20T13:36:19.265Z,100389.70
2023-03-20T13:38:48.658Z,100390.23
2023-03-20T13:41:17.071Z,100388.02
2023-03-20T13:43:47.400Z,100386.14
2023-03-20T13:46:19.505Z,100383.60
2023-03-20T13:48:47.838Z,100385.16
2023-03-20T13:51:24.468Z,100381.36
2023-03-20T13:54:12.096Z,100386.20
2023-03-20T13:56:49.424Z,100387.41
2023-03-20T13:59:36.579Z,100386.38
2023-03-20T14:02:08.668Z,100385.54
2023-03-20T14:04:38.591Z,100383.99
2023-03-20T14:07:26.079Z,100384.17
2023-03-20T14:09:54.514Z,100379.87
2023-03-20T14:12:26.744Z,100380.04
2023-03-20T14:15:00.983Z,100377.14
2023-03-20T14:17:30.973Z,100376.63
2023-03-20T14:20:09.190Z,100378.21
2023-03-20T14:22:38.997Z,100379.09
2023-03-20T14:25:08.554Z,100377.02
2023-03-20T14:27:52.937Z,100379.11
2023-03-20T14:30:30.139Z,100377.91
2023-03-20T14:33:13.642Z,100369.48
2023-03-20T14:35:52.562Z,100368.13
2023-03-20T14:38:20.884Z,100361.23
2023-03-20T14:41:04.329Z,100360.03
2023-03-20T14:43:38.628Z,100360.92
2023-03-20T14:46:07.415Z,100357.30
2023-03-20T14:48:38.185Z,100355.91
2023-03-20T14:51:14.652Z,100356.27
2023-03-20T14:53:42.885Z,100351.97
2023-03-20T14:56:13.523Z,100350.26
2023-03-20T14:58:43.423Z,100346.13
2023-03-20T15:01:20.086Z,100345.81
2023-03-20T15:03:53.974Z,100343.06
2023-03-20T15:06:22.263Z,100342.38
2023-03-20T15:08:55.293Z,100342.91
2023-03-20T15:11:23.619Z,100339.65
2023-03-20T15:13:53.767Z,100341.55
2023-03-20T15:16:26.159Z,100343.96
2023-03-20T15:18:54.311Z,100344.30
2023-03-20T15:21:28.789Z,100345.34
2023-03-20T15:23:57.572Z,100348.95
2023-03-20T15:26:25.986Z,100348.62
2023-03-20T15:29:04.512Z,100346.55
2023-03-20T15:31:33.893Z,100351.02
2023-03-20T15:34:10.053Z,100353.27
2023-03-20T15:36:39.776Z,100352.56
2023-03-20T15:39:14.070Z,100349.11
2023-03-20T15:41:46.824Z,100349.46
2023-03-20T15:44:15.089Z,100355.12
2023-03-20T15:47:02.613Z,100360.77
2023-03-20T15:49:32.389Z,100362.13
2023-03-20T15:52:01.356Z,100361.42
2023-03-20T15:54:31.174Z,100356.73
2023-03-20T15:57:03.404Z,100354.98
2023-03-20T15:59:32.752Z,100352.88
2023-03-20T16:02:01.216Z,100357.98
2023-03-20T16:04:29.528Z,100361.20
2023-03-20T16:06:59.318Z,100366.30
2023-03-20T16:09:28.850Z,100366.92
2023-03-20T16:12:01.373Z,100368.08
2023-03-20T16:14:31.747Z,100368.20
2023-03-20T16:17:00.556Z,100371.08
2023-03-20T16:19:29.180Z,100369.48
2023-03-20T16:21:58.672Z,100374.80
2023-03-20T16:24:30.451Z,100369.25
2023-03-20T16:26:58.770Z,100373.52
2023-03-20T16:29:27.501Z,100379.85
2023-03-20T16:31:59.999Z,100383.28
2023-03-20T16:34:32.023Z,100388.77
2023-03-20T16:37:01.954Z,100384.99
2023-03-20T16:39:30.404Z,100385.52
2023-03-20T16:42:11.742Z,100384.30
2023-03-20T16:44:40.790Z,100385.66
2023-03-20T16:47:20.740Z,100385.46
2023-03-20T16:49:49.806Z,100388.20
2023-03-20T16:52:19.708Z,100384.40
2023-03-20T16:54:47.816Z,100386.95
2023-03-20T16:57:17.545Z,100388.80
2023-03-20T16:59:46.028Z,100391.52
2023-03-20T17:02:30.795Z,100390.65
2023-03-20T17:05:02.735Z,100393.05
2023-03-20T17:07:31.591Z,100398.36
2023-03-20T17:10:17.281Z,100403.52
2023-03-20T17:12:46.910Z,100399.20
2023-03-20T17:15:19.185Z,100402.11
2023-03-20T17:17:47.586Z,100396.44
2023-03-20T17:20:20.118Z,100399.34
2023-03-20T17:22:48.378Z,100402.58
2023-03-20T17:25:16.782Z,100400.31
2023-03-20T17:27:47.876Z,100401.48
2023-03-20T17:30:20.127Z,100404.01
2023-03-20T17:32:49.242Z,100408.46
2023-03-20T17:35:17.602Z,100405.52
2023-03-20T17:37:46.061Z,100407.39
2023-03-20T17:40:21.326Z,100406.67
2023-03-20T17:42:50.001Z,100402.88
2023-03-20T17:45:24.152Z,100402.67
2023-03-20T17:47:52.906Z,100402.98
2023-03-20T17:50:24.551Z,100402.10
2023-03-20T17:52:53.912Z,100400.67
2023-03-20T17:55:22.383Z,100397.20
2023-03-20T17:57:50.992Z,100394.43
2023-03-20T18:00:23.619Z,100393.36
2023-03-20T18:02:53.129Z,100388.36
2023-03-20T18:05:21.381Z,100387.66
2023-03-20T18:07:49.725Z,100388.65
2023-03-20T18:10:24.010Z,100389.13
2023-03-20T18:12:52.546Z,100388.77
2023-03-20T18:15:24.343Z,100387.02
2023-03-20T18:17:53.067Z,100385.06
2023-03-20T18:20:26.670Z,100387.25
2023-03-20T18:22:55.532Z,100391.13
2023-03-20T18:25:25.981Z,100391.44
2023-03-20T18:27:55.141Z,100392.64
2023-03-20T18:30:24.473Z,100392.98
2023-03-20T18:32:52.856Z,100398.45
2023-03-20T18:35:21.534Z,100397.56
2023-03-20T18:37:49.795Z,100406.62
2023-03-20T18:40:21.900Z,100404.68
2023-03-20T18:42:51.459Z,100402.92
2023-03-20T18:45:19.907Z,100400.61
2023-03-20T18:48:09.860Z,100400.51
2023-03-20T18:50:43.479Z,100397.54
2023-03-20T18:53:11.924Z,100400.91
2023-03-20T18:55:40.118Z,100396.20
2023-03-20T18:58:14.480Z,100396.34
2023-03-20T19:00:42.938Z,100401.05
2023-03-20T19:03:11.587Z,100396.02
2023-03-20T19:05:41.678Z,100393.71
2023-03-20T19:08:12.855Z,100387.66
2023-03-20T19:10:44.067Z,100385.24
2023-03-20T19:13:14.288Z,100387.09
2023-03-20T19:15:42.720Z,100386.36
2023-03-20T19:18:15.777Z,100386.65
2023-03-20T19:20:45.706Z,100388.83
2023-03-20T19:23:14.432Z,100386.38
2023-03-20T19:25:44.079Z,100386.86
2023-03-20T19:28:21.744Z,100384.41
2023-03-20T19:30:52.542Z,100384.40
2023-03-20T19:33:21.129Z,100385.58
2023-03-20T19:36:05.090Z,100379.03
2023-03-20T19:38:35.643Z,100376.77
2023-03-20T19:41:04.152Z,100379.14
2023-03-20T19:43:32.509Z,100377.38
2023-03-20T19:46:01.161Z,100375.64
2023-03-20T19:51:19.916Z,100367.05
2023-03-20T19:53:48.992Z,100362.73
2023-03-20T19:56:18.236Z,100362.05
2023-03-20T19:58:46.429Z,100364.61
2023-03-20T20:01:15.974Z,100363.59
2023-03-20T20:03:44.373Z,100365.48
2023-03-20T20:06:15.917Z,100361.74
2023-03-20T20:08:49.109Z,100358.17
2023-03-20T20:11:18.296Z,100361.94
2023-03-20T20:14:05.698Z,100363.98
2023-03-20T20:16:37.026Z,100369.64
2023-03-20T20:19:10.961Z,100366.92
2023-03-20T20:24:27.762Z,100363.70
2023-03-20T20:27:15.339Z,100359.58
2023-03-20T20:29:49.281Z,100357.04
2023-03-20T20:32:23.482Z,100359.80
2023-03-20T20:35:38.797Z,100355.54
2023-03-20T20:40:32.629Z,100348.34
2023-03-20T20:43:02.627Z,100349.70
2023-03-20T20:45:43.719Z,100351.23
2023-03-20T20:48:12.760Z,100354.28
2023-03-20T20:50:42.161Z,100350.17
2023-03-20T20:53:13.143Z,100351.48
2023-03-20T20:55:42.096Z,100343.72
2023-03-20T20:58:12.270Z,100347.76
2023-03-20T21:00:51.771Z,100349.38
2023-03-20T21:03:22.102Z,100340.73
2023-03-20T21:05:52.379Z,100341.20
2023-03-20T21:08:20.841Z,100339.96
2023-03-20T21:10:55.498Z,100339.95
2023-03-20T21:13:24.017Z,100339.05
2023-03-20T21:15:59.083Z,100336.76
2023-03-20T21:18:28.876Z,100335.98
2023-03-20T21:21:06.965Z,100330.79
2023-03-20T21:23:35.382Z,100328.54
2023-03-20T21:26:03.567Z,100326.29
2023-03-20T21:28:32.187Z,100319.74
2023-03-20T21:33:48.979Z,100317.40
2023-03-20T21:36:17.577Z,100315.47
2023-03-20T21:41:34.658Z,100311.48
2023-03-20T21:44:03.902Z,100316.77
2023-03-20T22:04:06.374Z,100317.05
2023-03-20T22:12:48.045Z,100314.67
2023-03-20T22:21:22.480Z,100320.27
2023-03-20T22:27:10.813Z,100319.97
2023-03-20T22:29:41.831Z,100315.17
2023-03-20T22:35:22.868Z,100312.73
2023-03-20T22:38:04.835Z,100312.81
2023-03-20T22:44:04.728Z,100309.58
2023-03-20T22:46:03.644Z,100313.09
2023-03-20T22:48:34.547Z,100311.51
2023-03-20T22:51:02.990Z,100312.65
2023-03-20T22:53:34.142Z,100310.21
2023-03-20T22:56:02.301Z,100305.86
2023-03-20T22:58:30.691Z,100306.54
2023-03-20T23:00:59.008Z,100304.43
2023-03-20T23:03:40.834Z,100297.42
2023-03-20T23:06:11.258Z,100295.05
2023-03-20T23:08:49.045Z,100291.63
2023-03-20T23:11:20.320Z,100291.28
2023-03-20T23:13:51.803Z,100292.31
2023-03-20T23:16:20.267Z,100288.98
2023-03-20T23:18:48.441Z,100294.66
2023-03-20T23:21:17.543Z,100295.52
2023-03-20T23:23:45.733Z,100296.31
2023-03-20T23:26:14.717Z,100292.99
2023-03-20T23:28:43.500Z,100285.59
2023-03-20T23:31:12.881Z,100280.67
2023-03-20T23:33:42.010Z,100281.73
2023-03-20T23:36:21.536Z,100285.09
2023-03-20T23:38:57.013Z,100283.02
2023-03-20T23:41:49.293Z,100281.77
2023-03-20T23:44:13.780Z,100280.98
2023-03-20T23:46:42.517Z,100276.95
2023-03-20T23:49:11.164Z,100277.58
2023-03-20T23:51:39.332Z,100266.94
2023-03-20T23:54:07.618Z,100268.17
2023-03-20T23:56:36.113Z,100268.73
2023-03-20T23:59:20.537Z,100266.54
